Time;durP1;ratioP1;P1;durP2;ratioP2;P2;SDS_P1;SDS_P2;PMS_P1;PMS_P2;Temp;Humidity;BMP_temperature;BMP_pressure;BME280_temperature;BME280_humidity;BME280_pressure;Samples;Min_cycle;Max_cycle;Signal;HPM_P1;HPM_P2
2023/03/26 00:00:53;;;;;;;;;;;17.30;67.80;;;;;;5038343;28;895;-70
2023/03/26 00:03:19;;;;;;;;;;;17.30;67.80;;;;;;5035795;28;1891;-70
2023/03/26 00:05:46;;;;;;;;;;;17.30;67.80;;;;;;5035001;28;899;-70
2023/03/26 00:08:12;;;;;;;;;;;17.30;67.80;;;;;;5037122;28;903;-70
2023/03/26 00:10:38;;;;;;;;;;;17.30;67.80;;;;;;5067419;28;887;-71
2023/03/26 00:13:04;;;;;;;;;;;17.30;67.80;;;;;;5046504;28;903;-71
2023/03/26 00:15:30;;;;;;;;;;;17.30;67.80;;;;;;5073584;28;1622;-70
2023/03/26 00:17:55;;;;;;;;;;;17.30;67.80;;;;;;5035768;28;1623;-70
2023/03/26 00:20:21;;;;;;;;;;;17.30;67.80;;;;;;5035911;28;1523;-70
2023/03/26 00:22:46;;;;;;;;;;;17.30;67.80;;;;;;5070408;28;1038;-70
2023/03/26 00:25:12;;;;;;;;;;;17.30;67.80;;;;;;5035634;28;1910;-70
2023/03/26 00:27:38;;;;;;;;;;;17.30;67.80;;;;;;5047248;28;1337;-70
2023/03/26 00:30:04;;;;;;;;;;;17.30;67.80;;;;;;5041308;28;1329;-71
2023/03/26 00:32:30;;;;;;;;;;;17.30;67.80;;;;;;5037485;28;832;-70
2023/03/26 00:34:56;;;;;;;;;;;17.30;67.80;;;;;;5056933;28;1432;-71
2023/03/26 00:37:25;;;;;;;;;;;17.30;67.80;;;;;;5040344;28;1379;-70
2023/03/26 00:39:51;;;;;;;;;;;17.30;67.80;;;;;;5037672;28;891;-70
2023/03/26 00:42:17;;;;;;;;;;;17.30;67.80;;;;;;5039180;28;838;-70
2023/03/26 00:44:42;;;;;;;;;;;17.30;67.80;;;;;;5070122;28;1975;-70
2023/03/26 00:47:08;;;;;;;;;;;17.30;67.90;;;;;;5035345;28;963;-70
2023/03/26 00:49:33;;;;;;;;;;;17.30;67.80;;;;;;5040015;28;923;-70
2023/03/26 00:52:00;;;;;;;;;;;17.30;67.80;;;;;;5040887;28;875;-70
2023/03/26 00:54:25;;;;;;;;;;;17.30;67.90;;;;;;5041844;28;1237;-69
2023/03/26 00:56:54;;;;;;;;;;;17.30;67.90;;;;;;5038845;28;853;-70
2023/03/26 00:59:21;;;;;;;;;;;17.30;67.80;;;;;;5041663;28;824;-69
2023/03/26 01:01:47;;;;;;;;;;;17.30;67.80;;;;;;5041894;28;787;-69
2023/03/26 01:04:29;;;;;;;;;;;17.30;67.80;;;;;;5042714;28;1955;-69
2023/03/26 01:06:55;;;;;;;;;;;17.30;67.90;;;;;;5040614;28;895;-71
2023/03/26 01:09:21;;;;;;;;;;;17.30;67.90;;;;;;5041920;28;823;-70
2023/03/26 01:11:46;;;;;;;;;;;17.30;67.90;;;;;;5073233;28;792;-71
2023/03/26 01:14:13;;;;;;;;;;;17.30;67.90;;;;;;5041066;28;1272;-71
2023/03/26 01:16:43;;;;;;;;;;;17.30;67.90;;;;;;5042403;28;895;-71
2023/03/26 01:19:20;;;;;;;;;;;17.30;67.90;;;;;;5039217;28;852;-70
2023/03/26 01:21:46;;;;;;;;;;;17.30;67.90;;;;;;5042077;28;825;-69
2023/03/26 01:24:12;;;;;;;;;;;17.30;67.90;;;;;;5040170;28;1898;-69
2023/03/26 01:26:59;;;;;;;;;;;17.30;67.90;;;;;;5041919;28;1072;-69
2023/03/26 01:29:43;;;;;;;;;;;17.30;67.90;;;;;;5040289;28;844;-70
2023/03/26 01:32:23;;;;;;;;;;;17.30;68.00;;;;;;5040452;28;816;-69
2023/03/26 01:34:51;;;;;;;;;;;17.30;67.90;;;;;;5072080;28;1271;-69
2023/03/26 01:37:20;;;;;;;;;;;17.30;68.00;;;;;;5073980;28;1395;-70
2023/03/26 01:40:05;;;;;;;;;;;17.30;67.90;;;;;;5035829;28;1243;-71
2023/03/26 01:42:49;;;;;;;;;;;17.30;68.00;;;;;;5041717;28;864;-72
2023/03/26 01:45:16;;;;;;;;;;;17.30;67.90;;;;;;5040159;28;1894;-72
2023/03/26 01:47:41;;;;;;;;;;;17.30;67.90;;;;;;5042841;28;867;-72
2023/03/26 01:50:07;;;;;;;;;;;17.20;67.90;;;;;;5040330;28;891;-72
2023/03/26 01:52:32;;;;;;;;;;;17.30;68.00;;;;;;5043104;28;862;-72
2023/03/26 01:54:58;;;;;;;;;;;17.30;68.00;;;;;;5041299;28;1271;-72
2023/03/26 01:57:24;;;;;;;;;;;17.30;67.90;;;;;;5036580;28;800;-71
2023/03/26 01:59:49;;;;;;;;;;;17.30;68.00;;;;;;5042277;28;1246;-72
2023/03/26 02:02:26;;;;;;;;;;;17.30;67.90;;;;;;5040759;28;933;-71
2023/03/26 02:05:10;;;;;;;;;;;17.30;67.90;;;;;;5074245;28;1894;-71
2023/03/26 02:07:39;;;;;;;;;;;17.30;67.90;;;;;;5042152;28;944;-71
2023/03/26 02:10:09;;;;;;;;;;;17.20;67.90;;;;;;5041513;28;906;-72
2023/03/26 02:12:34;;;;;;;;;;;17.30;67.90;;;;;;5070863;28;919;-71
2023/03/26 02:15:00;;;;;;;;;;;17.30;67.90;;;;;;5041791;28;1224;-71
2023/03/26 02:17:28;;;;;;;;;;;17.20;67.90;;;;;;5041158;28;1061;-71
2023/03/26 02:19:54;;;;;;;;;;;17.20;67.90;;;;;;5041817;28;927;-75
2023/03/26 02:22:21;;;;;;;;;;;17.30;68.00;;;;;;5045582;28;1335;-76
2023/03/26 02:24:46;;;;;;;;;;;17.30;68.00;;;;;;5042369;28;1902;-75
2023/03/26 02:27:12;;;;;;;;;;;17.30;67.90;;;;;;5044613;28;1248;-75
2023/03/26 02:29:38;;;;;;;;;;;17.30;67.90;;;;;;5041558;28;1213;-70
2023/03/26 02:32:04;;;;;;;;;;;17.20;67.90;;;;;;5039729;28;891;-70
2023/03/26 02:34:30;;;;;;;;;;;17.30;68.00;;;;;;5039605;28;1358;-69
2023/03/26 02:36:56;;;;;;;;;;;17.30;68.00;;;;;;5040001;28;1057;-70
2023/03/26 02:39:21;;;;;;;;;;;17.30;68.00;;;;;;5041209;28;816;-70
2023/03/26 02:41:47;;;;;;;;;;;17.30;68.00;;;;;;5041298;28;954;-71
2023/03/26 02:44:13;;;;;;;;;;;17.30;68.00;;;;;;5039155;28;1942;-70
2023/03/26 02:46:38;;;;;;;;;;;17.20;67.90;;;;;;5040346;28;1050;-71
2023/03/26 02:49:04;;;;;;;;;;;17.20;67.90;;;;;;5040374;28;950;-70
2023/03/26 02:51:33;;;;;;;;;;;17.30;68.00;;;;;;5039199;28;787;-71
2023/03/26 02:54:00;;;;;;;;;;;17.30;68.00;;;;;;5040898;28;1374;-71
2023/03/26 02:56:25;;;;;;;;;;;17.30;68.00;;;;;;5043806;28;852;-70
2023/03/26 02:58:50;;;;;;;;;;;17.20;67.90;;;;;;5041554;28;914;-70
2023/03/26 03:01:17;;;;;;;;;;;17.20;67.90;;;;;;5041779;28;816;-71
2023/03/26 03:03:42;;;;;;;;;;;17.30;68.00;;;;;;5039225;28;1959;-71
2023/03/26 03:06:08;;;;;;;;;;;17.30;68.00;;;;;;5038793;28;921;-71
2023/03/26 03:08:33;;;;;;;;;;;17.30;68.00;;;;;;5047213;28;911;-70
2023/03/26 03:11:01;;;;;;;;;;;17.20;67.90;;;;;;5038898;28;1441;-70
2023/03/26 03:13:27;;;;;;;;;;;17.30;68.00;;;;;;5047512;28;1336;-70
2023/03/26 03:15:52;;;;;;;;;;;17.30;68.00;;;;;;5037641;28;851;-70
2023/03/26 03:18:18;;;;;;;;;;;17.20;67.90;;;;;;5041077;28;812;-70
2023/03/26 03:20:43;;;;;;;;;;;17.30;68.00;;;;;;5036062;28;935;-70
2023/03/26 03:23:09;;;;;;;;;;;17.20;67.90;;;;;;5038113;28;1918;-70
2023/03/26 03:25:35;;;;;;;;;;;17.20;67.90;;;;;;5040551;28;1244;-70
2023/03/26 03:28:01;;;;;;;;;;;17.30;68.00;;;;;;5036004;28;840;-71
2023/03/26 03:30:26;;;;;;;;;;;17.30;68.00;;;;;;5037503;28;907;-70
2023/03/26 03:32:51;;;;;;;;;;;17.20;67.90;;;;;;5038018;28;865;-70
2023/03/26 03:35:17;;;;;;;;;;;17.20;67.90;;;;;;5036658;28;1256;-71
2023/03/26 03:37:42;;;;;;;;;;;17.20;67.90;;;;;;5039107;28;1129;-70
2023/03/26 03:40:09;;;;;;;;;;;17.20;67.90;;;;;;5039665;28;906;-70
2023/03/26 03:42:35;;;;;;;;;;;17.20;67.90;;;;;;5039006;28;824;-70
2023/03/26 03:45:01;;;;;;;;;;;17.20;67.90;;;;;;5038017;28;1894;-71
2023/03/26 03:47:26;;;;;;;;;;;17.30;68.00;;;;;;5037743;28;866;-70
2023/03/26 03:49:52;;;;;;;;;;;17.20;67.90;;;;;;5039176;28;824;-70
2023/03/26 03:52:18;;;;;;;;;;;17.20;67.90;;;;;;5039346;28;922;-70
2023/03/26 03:54:43;;;;;;;;;;;17.20;67.90;;;;;;5037836;28;1286;-71
2023/03/26 03:57:08;;;;;;;;;;;17.20;68.00;;;;;;5040751;28;835;-70
2023/03/26 03:59:34;;;;;;;;;;;17.20;67.90;;;;;;5037593;28;1359;-70
2023/03/26 04:01:59;;;;;;;;;;;17.20;67.90;;;;;;5039562;28;1022;-71
2023/03/26 04:04:25;;;;;;;;;;;17.20;67.90;;;;;;5036786;28;1902;-71
2023/03/26 04:06:51;;;;;;;;;;;17.20;68.00;;;;;;5037498;28;899;-70
2023/03/26 04:09:16;;;;;;;;;;;17.30;68.00;;;;;;5074828;28;868;-71
2023/03/26 04:11:42;;;;;;;;;;;17.20;67.90;;;;;;5035332;28;842;-71
2023/03/26 04:14:07;;;;;;;;;;;17.30;67.80;;;;;;5071366;28;1388;-70
2023/03/26 04:16:33;;;;;;;;;;;17.30;67.70;;;;;;5039387;28;1002;-70
2023/03/26 04:19:01;;;;;;;;;;;17.30;67.60;;;;;;5040239;28;849;-70
2023/03/26 04:21:29;;;;;;;;;;;17.40;67.50;;;;;;5038539;28;899;-70
2023/03/26 04:23:54;;;;;;;;;;;17.40;67.40;;;;;;5040570;28;1980;-70
2023/03/26 04:26:20;;;;;;;;;;;17.40;68.00;;;;;;5036402;28;1326;-70
2023/03/26 04:29:04;;;;;;;;;;;17.50;67.10;;;;;;5069218;28;812;-70
2023/03/26 04:31:30;;;;;;;;;;;17.50;67.00;;;;;;5043763;28;814;-70
2023/03/26 04:34:04;;;;;;;;;;;17.50;66.80;;;;;;5045486;28;1516;-70
2023/03/26 04:36:30;;;;;;;;;;;17.60;66.80;;;;;;5076435;28;887;-70
2023/03/26 04:38:57;;;;;;;;;;;17.60;66.60;;;;;;5047955;28;1593;-70
2023/03/26 04:41:25;;;;;;;;;;;17.60;66.50;;;;;;5040132;28;862;-70
2023/03/26 04:43:51;;;;;;;;;;;17.60;67.20;;;;;;5045797;28;1954;-70
2023/03/26 04:46:20;;;;;;;;;;;17.70;66.40;;;;;;5044233;28;819;-70
2023/03/26 04:48:46;;;;;;;;;;;17.70;66.30;;;;;;5046575;28;836;-70
2023/03/26 04:51:17;;;;;;;;;;;17.70;66.20;;;;;;5044111;28;800;-70
2023/03/26 04:53:44;;;;;;;;;;;17.70;66.10;;;;;;5042493;28;1355;-70
2023/03/26 04:56:12;;;;;;;;;;;17.80;66.10;;;;;;5043642;28;877;-71
2023/03/26 04:58:38;;;;;;;;;;;17.80;66.00;;;;;;5044640;28;985;-70
2023/03/26 05:01:04;;;;;;;;;;;17.80;66.00;;;;;;5047132;28;1089;-70
2023/03/26 05:03:30;;;;;;;;;;;17.80;65.80;;;;;;5044675;28;1958;-70
2023/03/26 05:05:56;;;;;;;;;;;17.80;65.80;;;;;;5079638;28;905;-70
2023/03/26 05:08:21;;;;;;;;;;;17.80;65.80;;;;;;5046582;28;911;-70
2023/03/26 05:10:47;;;;;;;;;;;17.80;65.70;;;;;;5044255;28;1380;-70
2023/03/26 05:13:14;;;;;;;;;;;17.90;65.70;;;;;;5074301;28;1110;-70
2023/03/26 05:15:39;;;;;;;;;;;17.90;65.70;;;;;;5041986;28;1294;-70
2023/03/26 05:18:07;;;;;;;;;;;17.90;65.70;;;;;;5044439;28;876;-71
2023/03/26 05:20:32;;;;;;;;;;;17.90;65.60;;;;;;5041780;28;836;-70
2023/03/26 05:22:58;;;;;;;;;;;17.90;65.60;;;;;;5042641;28;887;-71
2023/03/26 05:25:23;;;;;;;;;;;17.90;65.80;;;;;;5047866;28;1902;-70
2023/03/26 05:27:49;;;;;;;;;;;17.90;65.60;;;;;;5041677;28;1221;-71
2023/03/26 05:30:15;;;;;;;;;;;17.90;65.50;;;;;;5044884;28;939;-71
2023/03/26 05:32:41;;;;;;;;;;;17.90;65.60;;;;;;5043259;28;816;-71
2023/03/26 05:35:06;;;;;;;;;;;17.90;65.50;;;;;;5043500;28;1681;-71
2023/03/26 05:37:32;;;;;;;;;;;17.90;65.50;;;;;;5040648;28;1680;-73
2023/03/26 05:39:58;;;;;;;;;;;17.90;65.50;;;;;;5041716;28;2215;-69
2023/03/26 05:42:23;;;;;;;;;;;17.90;65.50;;;;;;5071565;28;1472;-69
2023/03/26 05:44:49;;;;;;;;;;;17.90;65.50;;;;;;5042924;28;1967;-69
2023/03/26 05:47:14;;;;;;;;;;;17.90;65.50;;;;;;5039465;28;901;-71
2023/03/26 05:49:40;;;;;;;;;;;17.90;65.50;;;;;;5071604;28;934;-69
2023/03/26 05:52:05;;;;;;;;;;;17.90;65.60;;;;;;5040380;28;800;-69
2023/03/26 05:54:31;;;;;;;;;;;17.90;65.60;;;;;;5039688;28;1281;-70
2023/03/26 05:56:56;;;;;;;;;;;17.90;65.60;;;;;;5042628;28;983;-72
2023/03/26 05:59:22;;;;;;;;;;;17.90;65.60;;;;;;5044744;28;857;-72
2023/03/26 06:01:49;;;;;;;;;;;17.90;65.60;;;;;;5070349;28;895;-72
2023/03/26 06:04:18;;;;;;;;;;;17.90;65.60;;;;;;5040665;28;1963;-71
2023/03/26 06:06:46;;;;;;;;;;;17.90;65.60;;;;;;5038145;28;942;-70
2023/03/26 06:09:12;;;;;;;;;;;17.90;65.60;;;;;;5041328;28;959;-71
2023/03/26 06:11:37;;;;;;;;;;;17.90;65.60;;;;;;5048325;28;919;-71
2023/03/26 06:14:03;;;;;;;;;;;17.90;65.70;;;;;;5038796;28;1231;-70
2023/03/26 06:16:28;;;;;;;;;;;17.90;65.70;;;;;;5042325;28;834;-71
2023/03/26 06:18:54;;;;;;;;;;;17.80;65.60;;;;;;5038000;28;872;-71
2023/03/26 06:21:19;;;;;;;;;;;17.90;65.70;;;;;;5075795;28;812;-71
2023/03/26 06:23:47;;;;;;;;;;;17.90;65.80;;;;;;5040016;28;1961;-71
2023/03/26 06:26:13;;;;;;;;;;;17.80;65.70;;;;;;5039749;28;832;-72
2023/03/26 06:28:38;;;;;;;;;;;17.80;65.70;;;;;;5039157;28;938;-71
2023/03/26 06:31:04;;;;;;;;;;;17.80;65.70;;;;;;5071144;28;1065;-72
2023/03/26 06:33:30;;;;;;;;;;;17.80;65.80;;;;;;5043206;28;1254;-69
2023/03/26 06:35:56;;;;;;;;;;;17.80;65.80;;;;;;5037018;28;893;-70
2023/03/26 06:38:22;;;;;;;;;;;17.80;65.80;;;;;;5038769;28;989;-71
2023/03/26 06:40:47;;;;;;;;;;;17.80;65.80;;;;;;5038596;28;1241;-71
2023/03/26 06:43:13;;;;;;;;;;;17.80;65.80;;;;;;5042949;28;1898;-69
2023/03/26 06:45:38;;;;;;;;;;;17.80;65.90;;;;;;5041231;28;1185;-69
2023/03/26 06:48:04;;;;;;;;;;;17.80;65.90;;;;;;5037067;28;919;-69
2023/03/26 06:50:31;;;;;;;;;;;17.80;66.00;;;;;;5041658;28;796;-69
2023/03/26 06:52:56;;;;;;;;;;;17.80;66.00;;;;;;5040940;28;1035;-71
2023/03/26 06:55:21;;;;;;;;;;;17.80;66.00;;;;;;5074417;28;1210;-72
2023/03/26 06:57:48;;;;;;;;;;;17.80;66.00;;;;;;5038411;28;938;-70
2023/03/26 07:00:13;;;;;;;;;;;17.80;66.00;;;;;;5045073;28;793;-70
2023/03/26 07:02:39;;;;;;;;;;;17.80;66.00;;;;;;5038771;28;907;-70
2023/03/26 07:05:05;;;;;;;;;;;17.80;66.00;;;;;;5036207;28;1906;-71
2023/03/26 07:07:31;;;;;;;;;;;17.80;66.10;;;;;;5038183;28;1242;-71
2023/03/26 07:09:56;;;;;;;;;;;17.80;66.00;;;;;;5038660;28;887;-70
2023/03/26 07:12:22;;;;;;;;;;;17.80;66.00;;;;;;5030521;28;1253;-71
2023/03/26 07:14:47;;;;;;;;;;;17.80;66.80;;;;;;5037649;28;2047;-71
2023/03/26 07:17:13;;;;;;;;;;;17.80;66.10;;;;;;5042813;28;1946;-71
2023/03/26 07:19:38;;;;;;;;;;;17.80;66.10;;;;;;5039136;28;1630;-70
2023/03/26 07:22:04;;;;;;;;;;;17.80;66.10;;;;;;5043001;28;1945;-70
2023/03/26 07:24:29;;;;;;;;;;;17.80;66.10;;;;;;5039786;28;1966;-71
2023/03/26 07:27:01;;;;;;;;;;;17.80;66.10;;;;;;5040853;28;1446;-71
2023/03/26 07:29:31;;;;;;;;;;;17.70;66.00;;;;;;5038632;28;995;-71
2023/03/26 07:32:09;;;;;;;;;;;17.80;66.10;;;;;;5052631;28;1067;-71
2023/03/26 07:34:52;;;;;;;;;;;17.70;66.10;;;;;;5037735;28;1332;-72
2023/03/26 07:37:20;;;;;;;;;;;17.70;66.10;;;;;;5039076;28;1474;-72
2023/03/26 07:39:48;;;;;;;;;;;17.70;66.20;;;;;;5040896;28;817;-71
2023/03/26 07:42:17;;;;;;;;;;;17.80;66.20;;;;;;5040482;28;887;-72
2023/03/26 07:45:02;;;;;;;;;;;17.70;66.10;;;;;;5072984;28;1972;-72
2023/03/26 07:47:28;;;;;;;;;;;17.70;66.10;;;;;;5073089;28;852;-72
2023/03/26 07:49:54;;;;;;;;;;;17.70;66.10;;;;;;5068616;28;978;-72
2023/03/26 07:52:20;;;;;;;;;;;17.70;66.10;;;;;;5040491;28;831;-71
2023/03/26 07:54:46;;;;;;;;;;;17.70;66.20;;;;;;5035803;28;1326;-71
2023/03/26 07:57:14;;;;;;;;;;;17.70;66.20;;;;;;5038515;28;852;-72
2023/03/26 07:59:43;;;;;;;;;;;17.70;66.20;;;;;;5041233;28;848;-71
2023/03/26 08:02:28;;;;;;;;;;;17.70;66.20;;;;;;5071190;28;2109;-71
2023/03/26 08:05:29;;;;;;;;;;;17.70;66.20;;;;;;5036744;28;1898;-71
2023/03/26 08:07:57;;;;;;;;;;;17.70;66.20;;;;;;5047606;28;1428;-71
2023/03/26 08:10:31;;;;;;;;;;;17.70;66.20;;;;;;5040190;28;941;-71
2023/03/26 08:13:19;;;;;;;;;;;17.70;66.20;;;;;;5057818;28;1193;-71
2023/03/26 08:16:04;;;;;;;;;;;17.70;66.20;;;;;;5035730;28;1399;-71
2023/03/26 08:18:30;;;;;;;;;;;17.70;66.20;;;;;;5073232;28;847;-72
2023/03/26 08:20:57;;;;;;;;;;;17.70;66.20;;;;;;5039377;28;867;-71
2023/03/26 08:23:38;;;;;;;;;;;17.70;66.20;;;;;;5071326;28;1910;-71
2023/03/26 08:26:06;;;;;;;;;;;17.70;66.90;;;;;;5034005;28;1231;-72
2023/03/26 08:28:31;;;;;;;;;;;17.70;66.20;;;;;;5038625;28;890;-71
2023/03/26 08:30:57;;;;;;;;;;;17.70;66.20;;;;;;5038016;28;947;-71
2023/03/26 08:33:24;;;;;;;;;;;17.70;66.20;;;;;;5036583;28;1255;-72
2023/03/26 08:35:50;;;;;;;;;;;17.70;66.20;;;;;;5068799;28;1000;-71
2023/03/26 08:38:18;;;;;;;;;;;17.70;66.10;;;;;;5040713;28;1485;-71
2023/03/26 08:40:56;;;;;;;;;;;17.80;66.20;;;;;;5036246;28;919;-72
2023/03/26 08:43:40;;;;;;;;;;;17.80;66.10;;;;;;5036617;28;1898;-72
2023/03/26 08:46:24;;;;;;;;;;;17.80;66.10;;;;;;5035520;28;993;-71
2023/03/26 08:48:58;;;;;;;;;;;17.80;66.00;;;;;;5040695;28;939;-71
2023/03/26 08:51:38;;;;;;;;;;;17.80;66.00;;;;;;5035575;28;824;-71
2023/03/26 08:54:26;;;;;;;;;;;17.80;66.00;;;;;;5039048;28;1349;-71
2023/03/26 08:57:11;;;;;;;;;;;17.80;65.90;;;;;;5069091;28;906;-71
2023/03/26 08:59:41;;;;;;;;;;;17.80;65.90;;;;;;5037763;28;943;-71
2023/03/26 09:02:12;;;;;;;;;;;17.80;65.80;;;;;;5026236;28;1345;-71
2023/03/26 09:04:49;;;;;;;;;;;17.90;65.80;;;;;;5038031;28;1898;-71
2023/03/26 09:07:27;;;;;;;;;;;17.90;65.80;;;;;;5045162;28;1468;-71
2023/03/26 09:10:08;;;;;;;;;;;17.90;65.80;;;;;;5045822;28;931;-71
2023/03/26 09:12:42;;;;;;;;;;;17.80;65.70;;;;;;5036577;28;836;-71
2023/03/26 09:15:20;;;;;;;;;;;17.90;65.70;;;;;;5035585;28;1327;-71
2023/03/26 09:18:04;;;;;;;;;;;17.90;65.70;;;;;;5042284;28;1260;-71
2023/03/26 09:20:48;;;;;;;;;;;17.90;65.60;;;;;;5041673;28;864;-71
2023/03/26 09:23:14;;;;;;;;;;;17.90;66.40;;;;;;5040748;28;1910;-71
2023/03/26 09:25:55;;;;;;;;;;;17.90;65.70;;;;;;5046905;28;1468;-71
2023/03/26 09:28:20;;;;;;;;;;;17.90;65.60;;;;;;5042689;28;820;-71
2023/03/26 09:31:09;;;;;;;;;;;17.90;65.70;;;;;;5043854;28;834;-71
2023/03/26 09:33:37;;;;;;;;;;;17.90;65.70;;;;;;5046736;28;1239;-71
2023/03/26 09:36:03;;;;;;;;;;;17.90;65.70;;;;;;5058502;28;1154;-71
2023/03/26 09:38:31;;;;;;;;;;;17.90;65.70;;;;;;5041475;28;1147;-71
2023/03/26 09:41:15;;;;;;;;;;;17.80;65.60;;;;;;5043090;28;835;-71
2023/03/26 09:43:43;;;;;;;;;;;17.90;65.70;;;;;;5041150;28;1901;-71
2023/03/26 09:46:27;;;;;;;;;;;17.80;65.70;;;;;;5042150;28;876;-71
2023/03/26 09:48:56;;;;;;;;;;;17.80;65.70;;;;;;5043218;28;1030;-71
2023/03/26 09:51:33;;;;;;;;;;;17.90;65.80;;;;;;5040809;28;804;-71
2023/03/26 09:54:09;;;;;;;;;;;17.90;65.80;;;;;;5042192;28;1277;-71
2023/03/26 09:56:50;;;;;;;;;;;17.80;65.70;;;;;;5041321;28;804;-71
2023/03/26 09:59:34;;;;;;;;;;;17.90;65.80;;;;;;5038071;28;871;-70
2023/03/26 10:02:12;;;;;;;;;;;17.90;65.80;;;;;;5040517;28;812;-71
2023/03/26 10:04:40;;;;;;;;;;;17.80;65.70;;;;;;5041164;28;1897;-70
2023/03/26 10:07:07;;;;;;;;;;;17.80;65.70;;;;;;5042223;28;944;-71
2023/03/26 10:09:33;;;;;;;;;;;17.90;65.70;;;;;;5041020;28;838;-71
2023/03/26 10:12:04;;;;;;;;;;;17.90;65.70;;;;;;5045728;28;866;-70
2023/03/26 10:14:48;;;;;;;;;;;17.90;65.70;;;;;;5045676;28;1307;-71
2023/03/26 10:17:30;;;;;;;;;;;17.90;65.70;;;;;;5056211;28;1475;-70
2023/03/26 10:19:56;;;;;;;;;;;17.90;65.60;;;;;;5038346;28;888;-71
2023/03/26 10:22:37;;;;;;;;;;;17.90;65.60;;;;;;5038839;28;895;-71
2023/03/26 10:25:11;;;;;;;;;;;17.90;65.60;;;;;;5039640;28;1967;-71
2023/03/26 10:27:55;;;;;;;;;;;17.90;65.60;;;;;;5041508;28;900;-70
2023/03/26 10:30:21;;;;;;;;;;;17.90;65.50;;;;;;5043979;28;1292;-70
2023/03/26 10:32:52;;;;;;;;;;;17.90;65.50;;;;;;5039313;28;990;-70
2023/03/26 10:35:37;;;;;;;;;;;18.00;65.50;;;;;;5040236;28;2198;-71
2023/03/26 10:38:17;;;;;;;;;;;17.90;65.50;;;;;;5041284;28;1456;-70
2023/03/26 10:41:03;;;;;;;;;;;17.90;65.40;;;;;;5040839;28;1376;-71
2023/03/26 10:43:36;;;;;;;;;;;18.00;65.50;;;;;;5035763;28;1902;-71
2023/03/26 10:46:20;;;;;;;;;;;18.00;65.40;;;;;;5048456;28;1090;-71
2023/03/26 10:48:51;;;;;;;;;;;18.00;65.40;;;;;;5037533;28;1046;-71
2023/03/26 10:51:22;;;;;;;;;;;18.00;65.40;;;;;;5042880;28;1577;-71
2023/03/26 10:53:59;;;;;;;;;;;18.00;65.40;;;;;;5037697;28;1275;-70
2023/03/26 10:56:31;;;;;;;;;;;18.00;65.30;;;;;;5071931;28;911;-71
2023/03/26 10:58:56;;;;;;;;;;;18.00;65.40;;;;;;5039818;28;994;-72
2023/03/26 11:01:28;;;;;;;;;;;18.00;65.30;;;;;;5048866;28;2107;-74
2023/03/26 11:03:54;;;;;;;;;;;18.00;65.40;;;;;;5039246;28;1956;-71
2023/03/26 11:06:29;;;;;;;;;;;18.00;65.40;;;;;;5040676;28;1335;-72
2023/03/26 11:09:13;;;;;;;;;;;18.00;65.30;;;;;;5054026;28;1420;-72
2023/03/26 11:11:43;;;;;;;;;;;18.00;65.30;;;;;;5042150;28;937;-72
2023/03/26 11:14:29;;;;;;;;;;;18.00;65.40;;;;;;5068079;28;1235;-72
2023/03/26 11:16:57;;;;;;;;;;;18.00;65.40;;;;;;5040294;28;1212;-71
2023/03/26 11:19:26;;;;;;;;;;;18.00;65.40;;;;;;5071075;28;892;-71
2023/03/26 11:22:00;;;;;;;;;;;18.00;65.40;;;;;;5035304;28;830;-71
2023/03/26 11:24:29;;;;;;;;;;;18.00;65.40;;;;;;5036134;28;1887;-71
2023/03/26 11:26:55;;;;;;;;;;;18.00;65.50;;;;;;5038942;28;892;-71
2023/03/26 11:29:20;;;;;;;;;;;18.00;65.50;;;;;;5040744;28;815;-71
2023/03/26 11:31:58;;;;;;;;;;;17.90;65.50;;;;;;5037700;28;1191;-71
2023/03/26 11:34:32;;;;;;;;;;;18.00;65.60;;;;;;5041382;28;1245;-71
2023/03/26 11:36:58;;;;;;;;;;;17.90;65.50;;;;;;5042827;28;1378;-71
2023/03/26 11:39:27;;;;;;;;;;;17.90;65.50;;;;;;5046550;28;872;-71
2023/03/26 11:41:56;;;;;;;;;;;17.90;65.60;;;;;;5071670;28;872;-71
2023/03/26 11:44:26;;;;;;;;;;;17.90;65.60;;;;;;5071188;28;1897;-71
2023/03/26 11:46:52;;;;;;;;;;;17.90;65.60;;;;;;5069014;28;808;-71
2023/03/26 11:49:18;;;;;;;;;;;17.90;65.70;;;;;;5067932;28;943;-71
2023/03/26 11:51:46;;;;;;;;;;;17.90;65.70;;;;;;5057313;28;1466;-71
2023/03/26 11:54:11;;;;;;;;;;;17.90;65.70;;;;;;5036890;28;1293;-71
2023/03/26 11:56:49;;;;;;;;;;;17.90;65.80;;;;;;5038599;28;883;-71
2023/03/26 11:59:23;;;;;;;;;;;17.90;65.80;;;;;;5053943;28;1238;-71
2023/03/26 12:01:51;;;;;;;;;;;17.80;65.80;;;;;;5069790;28;875;-71
2023/03/26 12:04:18;;;;;;;;;;;17.80;65.80;;;;;;5040557;28;1887;-71
2023/03/26 12:06:51;;;;;;;;;;;17.90;65.90;;;;;;5035933;28;853;-71
2023/03/26 12:09:17;;;;;;;;;;;17.90;65.90;;;;;;5038723;28;877;-71
2023/03/26 12:11:44;;;;;;;;;;;17.80;65.80;;;;;;5036057;28;891;-71
2023/03/26 12:14:13;;;;;;;;;;;17.80;65.90;;;;;;5036478;28;1312;-71
2023/03/26 12:16:38;;;;;;;;;;;17.80;66.00;;;;;;5034503;28;1590;-71
2023/03/26 12:19:05;;;;;;;;;;;17.80;66.00;;;;;;5040432;28;1411;-71
2023/03/26 12:21:43;;;;;;;;;;;17.80;66.00;;;;;;5037260;28;901;-71
2023/03/26 12:24:26;;;;;;;;;;;17.80;66.00;;;;;;5070971;28;1906;-71
2023/03/26 12:26:55;;;;;;;;;;;17.80;66.00;;;;;;5039203;28;835;-71
2023/03/26 12:29:22;;;;;;;;;;;17.80;66.00;;;;;;5068312;28;841;-71
2023/03/26 12:31:48;;;;;;;;;;;17.80;66.20;;;;;;5038831;28;844;-71
2023/03/26 12:34:15;;;;;;;;;;;17.80;66.10;;;;;;5040738;28;1252;-71
2023/03/26 12:36:40;;;;;;;;;;;17.80;66.10;;;;;;5041644;28;1449;-71
2023/03/26 12:39:19;;;;;;;;;;;17.80;66.20;;;;;;5034246;28;1286;-71
2023/03/26 12:41:45;;;;;;;;;;;17.70;66.10;;;;;;5070077;28;820;-71
2023/03/26 12:44:16;;;;;;;;;;;17.80;66.20;;;;;;5046493;28;1961;-71
2023/03/26 12:46:44;;;;;;;;;;;17.70;66.20;;;;;;5045555;28;1649;-70
2023/03/26 12:49:10;;;;;;;;;;;17.80;66.20;;;;;;5046113;28;855;-71
2023/03/26 12:51:42;;;;;;;;;;;17.70;66.20;;;;;;5072905;28;818;-71
2023/03/26 12:54:14;;;;;;;;;;;17.70;66.20;;;;;;5044121;28;1341;-71
2023/03/26 12:56:46;;;;;;;;;;;17.70;66.20;;;;;;5043145;28;870;-71
2023/03/26 12:59:20;;;;;;;;;;;17.70;66.30;;;;;;5050681;28;853;-71
2023/03/26 13:02:06;;;;;;;;;;;17.70;66.30;;;;;;5050068;28;845;-71
2023/03/26 13:04:42;;;;;;;;;;;17.70;66.30;;;;;;5038507;28;2038;-71
2023/03/26 13:07:24;;;;;;;;;;;17.70;66.30;;;;;;5049452;28;966;-71
2023/03/26 13:09:59;;;;;;;;;;;17.70;66.30;;;;;;5050142;28;824;-72
2023/03/26 13:12:27;;;;;;;;;;;17.70;66.40;;;;;;5039693;28;1316;-72
2023/03/26 13:15:11;;;;;;;;;;;17.70;66.40;;;;;;5045398;28;1280;-71
2023/03/26 13:17:56;;;;;;;;;;;17.70;66.40;;;;;;5055731;28;1379;-72
2023/03/26 13:20:24;;;;;;;;;;;17.70;66.40;;;;;;5082514;28;881;-72
2023/03/26 13:23:04;;;;;;;;;;;17.70;66.50;;;;;;5045360;28;1051;-71
2023/03/26 13:25:56;;;;;;;;;;;17.70;66.50;;;;;;5041930;28;1890;-71
2023/03/26 13:28:30;;;;;;;;;;;17.70;66.50;;;;;;5044863;28;1986;-72
2023/03/26 13:30:56;;;;;;;;;;;17.70;66.50;;;;;;5042894;28;1928;-72
2023/03/26 13:33:21;;;;;;;;;;;17.70;66.50;;;;;;5040760;28;1914;-72
2023/03/26 13:35:49;;;;;;;;;;;17.70;66.60;;;;;;5040552;28;1240;-72
2023/03/26 13:38:19;;;;;;;;;;;17.70;66.60;;;;;;5041773;28;1321;-73
2023/03/26 13:40:47;;;;;;;;;;;17.70;66.60;;;;;;5039260;28;856;-73
2023/03/26 13:43:31;;;;;;;;;;;17.70;66.60;;;;;;5040444;28;988;-73
2023/03/26 13:45:59;;;;;;;;;;;17.60;66.60;;;;;;5046647;28;1383;-74
2023/03/26 13:48:26;;;;;;;;;;;17.60;66.60;;;;;;5039902;28;958;-73
2023/03/26 13:50:56;;;;;;;;;;;17.60;66.70;;;;;;5073456;28;862;-72
2023/03/26 13:53:27;;;;;;;;;;;17.60;66.60;;;;;;5041616;28;816;-72
2023/03/26 13:55:54;;;;;;;;;;;17.70;66.50;;;;;;5040540;28;904;-72
2023/03/26 13:58:25;;;;;;;;;;;17.70;67.00;;;;;;5041832;28;852;-72
2023/03/26 14:00:54;;;;;;;;;;;17.70;66.40;;;;;;5037565;28;907;-72
2023/03/26 14:03:34;;;;;;;;;;;17.70;66.10;;;;;;5041984;28;1559;-72
2023/03/26 14:06:00;;;;;;;;;;;17.70;65.10;;;;;;5037743;28;907;-72
2023/03/26 14:08:36;;;;;;;;;;;17.70;64.40;;;;;;5040661;28;789;-72
2023/03/26 14:11:06;;;;;;;;;;;17.70;64.00;;;;;;5042262;28;873;-72
2023/03/26 14:13:51;;;;;;;;;;;17.70;63.50;;;;;;5042823;28;1351;-72
2023/03/26 14:16:21;;;;;;;;;;;17.70;63.30;;;;;;5049803;28;986;-71
2023/03/26 14:18:52;;;;;;;;;;;17.70;63.20;;;;;;5048446;28;879;-72
2023/03/26 14:21:18;;;;;;;;;;;17.70;63.00;;;;;;5049798;28;812;-72
2023/03/26 14:23:46;;;;;;;;;;;17.70;62.80;;;;;;5043433;28;1918;-71
2023/03/26 14:26:21;;;;;;;;;;;17.70;62.50;;;;;;5038642;28;848;-71
2023/03/26 14:28:47;;;;;;;;;;;17.70;62.30;;;;;;5057892;28;1273;-71
2023/03/26 14:31:33;;;;;;;;;;;17.70;62.40;;;;;;5038664;28;987;-73
2023/03/26 14:34:28;;;;;;;;;;;17.70;62.30;;;;;;5040543;28;1267;-71
2023/03/26 14:36:53;;;;;;;;;;;17.70;62.30;;;;;;5031841;28;1485;-71
2023/03/26 14:39:27;;;;;;;;;;;17.70;62.30;;;;;;5040553;28;879;-72
2023/03/26 14:42:07;;;;;;;;;;;17.70;61.90;;;;;;5047643;28;828;-73
2023/03/26 14:44:46;;;;;;;;;;;17.60;61.80;;;;;;5047829;28;1910;-72
2023/03/26 14:47:15;;;;;;;;;;;17.70;61.60;;;;;;5073145;28;1034;-72
2023/03/26 14:49:42;;;;;;;;;;;17.70;61.80;;;;;;5049807;28;845;-71
2023/03/26 14:52:23;;;;;;;;;;;17.70;61.90;;;;;;5040706;28;852;-72